METAR Formatted Surface Weather Observation
Issued by NWS

Home | Current Version | Previous Version | Text Only | Print | Product List | Glossary On
Versions: 1 2 3 4 5 6 7 8 9 10 11 12 13 14 15 16 17 18 19 20
405
SAUS42 KRAH 211159
MTRNJM
METAR KNJM 211157Z AUTO 05007KT 10SM CLR 11/04 A3043 RMK AO2 SLP307
T01110044 10111 20056 51015 $



USA.gov is the U.S. government's official web portal to all federal, state and local government web resources and services.